Time;durP1;ratioP1;P1;durP2;ratioP2;P2;SDS_P1;SDS_P2;PMS_P1;PMS_P2;Temp;Humidity;BMP_temperature;BMP_pressure;BME280_temperature;BME280_humidity;BME280_pressure;Samples;Min_cycle;Max_cycle;Signal;HPM_P1;HPM_P2
2024/03/13 07:52:39;;;;;;;18.70;10.30;;;;;;;2.74;100.00;101110.06;106578;1257;61312;-82
2024/03/13 07:55:09;;;;;;;16.30;8.70;;;;;;;2.76;100.00;101119.12;106259;1257;61430;-84
2024/03/13 07:57:43;;;;;;;19.50;10.20;;;;;;;2.79;100.00;101124.64;106278;1256;76878;-82
2024/03/13 08:00:11;;;;;;;25.70;10.40;;;;;;;2.78;100.00;101131.66;106279;1253;71188;-82
2024/03/13 08:02:40;;;;;;;20.10;9.80;;;;;;;2.73;100.00;101138.02;106490;1255;73895;-82
2024/03/13 08:05:16;;;;;;;16.20;9.30;;;;;;;2.66;100.00;101135.92;106361;1253;61425;-81
2024/03/13 08:07:45;;;;;;;22.30;10.00;;;;;;;2.64;100.00;101138.70;106265;1256;61488;-82
2024/03/13 08:10:31;;;;;;;17.00;8.80;;;;;;;2.61;100.00;101140.29;106301;1250;76466;-83
2024/03/13 08:13:16;;;;;;;21.60;9.70;;;;;;;2.60;100.00;101141.31;106401;1251;70564;-83
2024/03/13 08:16:02;;;;;;;25.80;12.10;;;;;;;2.62;100.00;101145.05;106480;1251;74763;-82
2024/03/13 08:18:47;;;;;;;26.90;12.60;;;;;;;2.66;100.00;101146.89;106603;1253;62973;-82
2024/03/13 08:21:35;;;;;;;24.60;10.70;;;;;;;2.71;100.00;101150.23;106731;1256;61252;-82
2024/03/13 08:24:26;;;;;;;29.80;12.40;;;;;;;2.80;100.00;101151.04;106540;1253;75480;-83
2024/03/13 08:27:17;;;;;;;21.30;10.70;;;;;;;2.89;100.00;101157.13;106547;1256;71243;-82
2024/03/13 08:30:09;;;;;;;22.30;10.20;;;;;;;2.93;100.00;101153.50;106276;1256;74306;-83
2024/03/13 08:33:01;;;;;;;17.40;8.70;;;;;;;2.95;100.00;101156.08;106428;1253;61235;-82
2024/03/13 08:35:50;;;;;;;17.50;8.90;;;;;;;2.96;100.00;101155.06;106527;1256;61304;-82
2024/03/13 08:38:41;;;;;;;16.70;9.00;;;;;;;3.02;100.00;101158.63;106313;1250;74989;-81
2024/03/13 08:41:31;;;;;;;22.80;10.10;;;;;;;3.15;100.00;101175.38;106468;1256;69762;-81
2024/03/13 08:44:23;;;;;;;18.00;8.90;;;;;;;3.29;100.00;101177.08;106407;1253;72303;-81
2024/03/13 08:47:13;;;;;;;28.80;12.50;;;;;;;3.34;100.00;101176.60;106445;1253;61356;-82
2024/03/13 08:50:05;;;;;;;21.30;10.20;;;;;;;3.40;100.00;101172.79;106418;1257;61233;-81
2024/03/13 08:52:55;;;;;;;26.90;12.70;;;;;;;3.43;100.00;101167.41;106507;1256;76890;-81
2024/03/13 08:55:46;;;;;;;23.60;11.10;;;;;;;3.45;100.00;101165.70;106336;1253;70074;-80
2024/03/13 08:58:31;;;;;;;18.60;8.80;;;;;;;3.42;100.00;101167.09;106587;1253;74695;-80
2024/03/13 09:01:23;;;;;;;22.80;9.30;;;;;;;3.43;100.00;101164.95;106662;1252;61314;-83
2024/03/13 09:04:14;;;;;;;22.90;9.60;;;;;;;3.51;100.00;101167.34;106524;1251;61280;-83
2024/03/13 09:07:06;;;;;;;25.60;11.20;;;;;;;3.63;100.00;101167.91;106436;1258;76410;-81
2024/03/13 09:09:38;;;;;;;18.00;8.60;;;;;;;3.67;100.00;101165.17;106430;1251;69976;-81
2024/03/13 09:12:15;;;;;;;20.80;9.30;;;;;;;3.64;100.00;101159.80;106194;1253;74970;-83
2024/03/13 09:14:46;;;;;;;21.50;7.90;;;;;;;3.58;100.00;101162.83;106375;1250;61458;-82
2024/03/13 09:17:18;;;;;;;20.00;8.70;;;;;;;3.54;100.00;101169.08;106521;1253;62148;-80
2024/03/13 09:19:52;;;;;;;;;;;;;;;3.50;100.00;101166.61;106360;1252;75555;-82
2024/03/13 09:22:25;;;;;;;14.90;7.40;;;;;;;3.48;100.00;101164.70;106361;1259;71191;-80
2024/03/13 09:24:58;;;;;;;14.50;7.30;;;;;;;3.50;100.00;101161.82;106221;1253;75054;-80
2024/03/13 09:27:30;;;;;;;14.00;7.70;;;;;;;3.54;100.00;101164.97;106384;1253;61209;-81
2024/03/13 09:30:03;;;;;;;;;;;;;;;3.58;100.00;101156.17;106407;1258;61242;-81
2024/03/13 09:32:35;;;;;;;13.50;7.20;;;;;;;3.64;100.00;101154.30;106269;1252;75336;-80
2024/03/13 09:35:09;;;;;;;11.70;6.10;;;;;;;3.61;100.00;101153.81;106336;1253;70698;-80
2024/03/13 09:37:43;;;;;;;14.50;6.50;;;;;;;3.59;100.00;101151.96;106796;1256;73612;-82
2024/03/13 09:40:17;;;;;;;16.90;6.80;;;;;;;3.57;100.00;101147.56;107104;1256;61295;-81
2024/03/13 09:42:46;;;;;;;15.80;7.30;;;;;;;3.56;100.00;101139.71;107001;1250;61180;-81
2024/03/13 09:45:22;;;;;;;12.90;6.50;;;;;;;3.61;100.00;101140.48;107293;1254;75173;-82
2024/03/13 09:47:53;;;;;;;13.80;6.80;;;;;;;3.69;100.00;101137.27;106447;1256;70139;-81
2024/03/13 09:50:26;;;;;;;13.00;6.20;;;;;;;3.75;100.00;101138.86;106138;1250;75092;-81
2024/03/13 09:53:02;;;;;;;15.00;6.90;;;;;;;3.84;100.00;101136.15;106124;1251;61359;-82
2024/03/13 09:55:34;;;;;;;13.10;6.20;;;;;;;3.99;100.00;101133.71;106695;1258;61989;-81
2024/03/13 09:58:08;;;;;;;12.80;6.50;;;;;;;4.14;100.00;101129.94;106512;1250;76439;-82
2024/03/13 10:00:44;;;;;;;12.80;6.90;;;;;;;4.22;100.00;101133.62;106321;1253;69618;-81
2024/03/13 10:03:24;;;;;;;14.80;6.70;;;;;;;4.32;100.00;101131.11;106566;1253;73480;-82
2024/03/13 10:05:53;;;;;;;14.70;7.50;;;;;;;4.28;100.00;101135.89;106332;1256;61309;-84
2024/03/13 10:08:24;;;;;;;11.30;6.10;;;;;;;4.20;100.00;101136.64;106479;1250;61976;-81
2024/03/13 10:11:00;;;;;;;13.90;6.60;;;;;;;4.01;100.00;101137.69;106421;1250;76701;-79
2024/03/13 10:13:30;;;;;;;12.60;6.70;;;;;;;3.86;100.00;101135.67;106495;1256;69876;-82
2024/03/13 10:16:06;;;;;;;11.30;6.30;;;;;;;3.76;100.00;101131.20;106439;1251;74403;-81
2024/03/13 10:18:41;;;;;;;13.00;6.80;;;;;;;3.68;100.00;101133.30;106095;1259;61600;-82
2024/03/13 10:21:27;;;;;;;18.60;8.60;;;;;;;3.65;100.00;101125.31;106370;1258;61631;-80
2024/03/13 10:23:56;;;;;;;13.70;6.70;;;;;;;3.64;100.00;101123.38;106168;1256;76119;-81
2024/03/13 10:26:24;;;;;;;13.70;7.10;;;;;;;3.67;100.00;101125.50;106471;1256;71000;-82
2024/03/13 10:28:55;;;;;;;14.30;7.20;;;;;;;3.70;100.00;101126.95;107040;1253;74853;-80
2024/03/13 10:31:29;;;;;;;14.40;7.80;;;;;;;3.75;100.00;101126.79;106440;1259;62304;-80
2024/03/13 10:34:02;;;;;;;15.40;7.90;;;;;;;3.78;100.00;101121.98;106525;1259;62285;-81
2024/03/13 10:36:39;;;;;;;19.70;8.80;;;;;;;3.82;100.00;101123.59;106552;1254;75699;-82
2024/03/13 10:39:08;;;;;;;20.50;8.70;;;;;;;3.78;100.00;101123.33;106494;1250;69072;-82
2024/03/13 10:41:44;;;;;;;13.10;6.90;;;;;;;3.69;100.00;101120.42;106367;1258;74723;-80
2024/03/13 10:44:15;;;;;;;24.60;12.90;;;;;;;3.61;100.00;101124.77;106277;1256;61602;-79
2024/03/13 10:46:49;;;;;;;26.40;11.00;;;;;;;3.69;100.00;101119.68;106475;1251;62411;-82
2024/03/13 10:49:21;;;;;;;27.70;13.50;;;;;;;3.78;100.00;101120.95;106328;1258;76721;-82
2024/03/13 10:51:56;;;;;;;37.20;19.10;;;;;;;3.80;100.00;101119.94;106500;1253;70302;-80
2024/03/13 10:54:27;;;;;;;32.50;15.60;;;;;;;3.80;100.00;101113.33;106654;1253;74136;-79
2024/03/13 10:57:00;;;;;;;20.00;9.40;;;;;;;3.76;100.00;101109.12;106462;1253;61369;-80
2024/03/13 10:59:34;;;;;;;26.70;9.40;;;;;;;3.77;100.00;101108.15;106429;1251;61260;-83
2024/03/13 11:02:08;;;;;;;24.90;12.60;;;;;;;3.77;100.00;101105.90;106337;1256;76068;-83
2024/03/13 11:04:44;;;;;;;18.40;9.60;;;;;;;3.75;100.00;101105.54;106061;1253;71145;-79
2024/03/13 11:07:18;;;;;;;25.30;11.60;;;;;;;3.70;100.00;101107.83;106582;1253;73228;-82
2024/03/13 11:09:52;;;;;;;43.00;16.70;;;;;;;3.65;100.00;101105.73;106324;1252;61356;-81
2024/03/13 11:12:27;;;;;;;15.70;8.20;;;;;;;3.61;100.00;101109.08;106413;1256;61270;-82
2024/03/13 11:15:01;;;;;;;31.30;14.30;;;;;;;3.58;100.00;101112.04;106334;1251;76744;-80
2024/03/13 11:17:35;;;;;;;32.10;15.10;;;;;;;3.49;100.00;101113.84;106509;1250;70686;-80
2024/03/13 11:20:14;;;;;;;51.50;20.70;;;;;;;3.40;100.00;101111.86;106244;1250;74087;-82
2024/03/13 11:22:54;;;;;;;29.60;14.30;;;;;;;3.39;100.00;101114.73;106454;1257;62041;-82
2024/03/13 11:25:28;;;;;;;21.60;10.50;;;;;;;3.11;100.00;101113.53;106385;1253;62133;-83
2024/03/13 11:28:02;;;;;;;35.60;16.20;;;;;;;2.95;100.00;101110.70;106465;1256;77012;-82
2024/03/13 11:30:37;;;;;;;15.60;9.70;;;;;;;2.90;100.00;101109.73;106113;1253;69846;-80
2024/03/13 11:33:11;;;;;;;19.00;9.30;;;;;;;2.84;100.00;101102.40;106481;1254;74312;-81
2024/03/13 11:35:46;;;;;;;13.40;8.30;;;;;;;2.84;100.00;101102.23;106235;1253;61324;-82
2024/03/13 11:38:20;;;;;;;21.20;9.70;;;;;;;2.79;100.00;101100.27;106705;1251;62072;-81
2024/03/13 11:40:54;;;;;;;21.50;9.30;;;;;;;2.78;100.00;101100.18;106105;1251;75525;-79
2024/03/13 11:43:28;;;;;;;38.60;14.00;;;;;;;2.75;100.00;101098.94;106233;1250;69380;-81
2024/03/13 11:46:03;;;;;;;19.50;9.50;;;;;;;2.79;100.00;101099.09;106277;1253;73652;-82
2024/03/13 11:48:37;;;;;;;19.10;10.50;;;;;;;2.83;100.00;101098.41;106417;1257;61362;-82
2024/03/13 23:53:02;;;;;;;13.20;5.80;;;;;;;2.86;100.00;100914.65;106543;1250;73420;-88
2024/03/13 23:55:36;;;;;;;16.20;7.30;;;;;;;2.86;100.00;100915.23;106340;1251;68340;-88
2024/03/13 23:58:09;;;;;;;14.70;7.10;;;;;;;2.80;100.00;100918.52;106969;1253;70810;-86
